sensor_id;sensor_type;location;lat;lon;timestamp;pressure;altitude;pressure_sealevel;temperature;humidity
2184;BME280;1098;48.940;8.962;2023-02-22T00:02:05;98432.25;;;6.61;100.00
2184;BME280;1098;48.940;8.962;2023-02-22T00:04:52;98398.34;;;6.47;100.00
2184;BME280;1098;48.940;8.962;2023-02-22T00:07:20;98420.72;;;6.80;100.00
2184;BME280;1098;48.940;8.962;2023-02-22T00:09:49;98417.81;;;6.62;100.00
2184;BME280;1098;48.940;8.962;2023-02-22T00:12:18;98420.31;;;7.36;100.00
2184;BME280;1098;48.940;8.962;2023-02-22T00:14:46;98415.56;;;7.32;100.00
2184;BME280;1098;48.940;8.962;2023-02-22T00:17:18;98409.50;;;7.69;100.00
2184;BME280;1098;48.940;8.962;2023-02-22T00:19:47;98416.81;;;6.83;100.00
2184;BME280;1098;48.940;8.962;2023-02-22T00:22:15;98412.03;;;6.72;100.00
2184;BME280;1098;48.940;8.962;2023-02-22T00:24:44;98417.31;;;6.32;100.00
2184;BME280;1098;48.940;8.962;2023-02-22T00:27:14;98383.69;;;5.89;100.00
2184;BME280;1098;48.940;8.962;2023-02-22T00:29:43;98409.41;;;6.24;100.00
2184;BME280;1098;48.940;8.962;2023-02-22T00:32:12;98403.78;;;6.93;100.00
2184;BME280;1098;48.940;8.962;2023-02-22T00:34:42;98400.06;;;6.94;100.00
2184;BME280;1098;48.940;8.962;2023-02-22T00:37:11;98400.25;;;5.99;100.00
2184;BME280;1098;48.940;8.962;2023-02-22T00:39:39;98406.06;;;6.02;100.00
2184;BME280;1098;48.940;8.962;2023-02-22T00:42:08;98394.72;;;7.27;100.00
2184;BME280;1098;48.940;8.962;2023-02-22T00:44:38;98390.56;;;7.38;100.00
2184;BME280;1098;48.940;8.962;2023-02-22T00:47:07;98397.16;;;6.76;100.00
2184;BME280;1098;48.940;8.962;2023-02-22T00:49:36;98392.38;;;7.50;100.00
2184;BME280;1098;48.940;8.962;2023-02-22T00:52:06;98390.13;;;7.28;100.00
2184;BME280;1098;48.940;8.962;2023-02-22T00:54:35;98386.84;;;6.99;100.00
2184;BME280;1098;48.940;8.962;2023-02-22T00:57:03;98371.97;;;6.90;100.00
2184;BME280;1098;48.940;8.962;2023-02-22T00:59:32;98374.84;;;6.55;100.00
2184;BME280;1098;48.940;8.962;2023-02-22T01:02:00;98377.97;;;7.18;100.00
2184;BME280;1098;48.940;8.962;2023-02-22T01:04:29;98383.09;;;7.40;100.00
2184;BME280;1098;48.940;8.962;2023-02-22T01:06:57;98382.69;;;7.43;100.00
2184;BME280;1098;48.940;8.962;2023-02-22T01:09:28;98384.75;;;7.28;100.00
2184;BME280;1098;48.940;8.962;2023-02-22T01:11:56;98370.09;;;7.37;100.00
2184;BME280;1098;48.940;8.962;2023-02-22T01:14:25;98374.88;;;7.02;100.00
2184;BME280;1098;48.940;8.962;2023-02-22T01:16:55;98375.00;;;6.47;100.00
2184;BME280;1098;48.940;8.962;2023-02-22T01:19:24;98380.25;;;6.82;100.00
2184;BME280;1098;48.940;8.962;2023-02-22T01:21:52;98376.72;;;6.75;100.00
2184;BME280;1098;48.940;8.962;2023-02-22T01:24:21;98363.72;;;6.85;100.00
2184;BME280;1098;48.940;8.962;2023-02-22T01:26:51;98375.50;;;5.62;100.00
2184;BME280;1098;48.940;8.962;2023-02-22T01:29:20;98364.25;;;6.28;100.00
2184;BME280;1098;48.940;8.962;2023-02-22T01:31:53;98360.84;;;7.06;100.00
2184;BME280;1098;48.940;8.962;2023-02-22T01:34:22;98369.31;;;5.62;100.00
2184;BME280;1098;48.940;8.962;2023-02-22T01:36:51;98367.25;;;6.05;100.00
2184;BME280;1098;48.940;8.962;2023-02-22T01:39:20;98363.22;;;6.22;100.00
2184;BME280;1098;48.940;8.962;2023-02-22T01:41:48;98357.63;;;6.24;100.00
2184;BME280;1098;48.940;8.962;2023-02-22T01:44:26;98351.69;;;5.46;100.00
2184;BME280;1098;48.940;8.962;2023-02-22T01:46:59;98354.56;;;5.38;100.00
2184;BME280;1098;48.940;8.962;2023-02-22T01:49:31;98346.09;;;5.75;100.00
2184;BME280;1098;48.940;8.962;2023-02-22T01:52:05;98316.72;;;5.54;100.00
2184;BME280;1098;48.940;8.962;2023-02-22T01:54:37;98339.47;;;5.71;100.00
2184;BME280;1098;48.940;8.962;2023-02-22T01:57:12;98337.81;;;5.70;100.00
2184;BME280;1098;48.940;8.962;2023-02-22T01:59:47;98335.50;;;5.61;100.00
2184;BME280;1098;48.940;8.962;2023-02-22T02:02:16;98335.09;;;6.11;100.00
2184;BME280;1098;48.940;8.962;2023-02-22T02:04:47;98336.00;;;5.36;100.00
2184;BME280;1098;48.940;8.962;2023-02-22T02:07:18;98334.56;;;5.40;100.00
2184;BME280;1098;48.940;8.962;2023-02-22T02:09:51;98321.38;;;5.39;100.00
2184;BME280;1098;48.940;8.962;2023-02-22T02:12:23;98320.63;;;5.51;100.00
2184;BME280;1098;48.940;8.962;2023-02-22T02:15:16;98325.38;;;5.15;100.00
2184;BME280;1098;48.940;8.962;2023-02-22T02:17:45;98312.31;;;5.05;100.00
2184;BME280;1098;48.940;8.962;2023-02-22T02:20:16;98318.28;;;4.79;100.00
2184;BME280;1098;48.940;8.962;2023-02-22T02:22:51;98313.50;;;4.96;100.00
2184;BME280;1098;48.940;8.962;2023-02-22T02:25:57;98315.59;;;4.73;100.00
2184;BME280;1098;48.940;8.962;2023-02-22T02:29:07;98308.78;;;4.98;100.00
2184;BME280;1098;48.940;8.962;2023-02-22T02:32:11;98308.09;;;5.65;100.00
2184;BME280;1098;48.940;8.962;2023-02-22T02:34:48;98308.47;;;5.56;100.00
2184;BME280;1098;48.940;8.962;2023-02-22T02:37:23;98301.41;;;4.79;100.00
2184;BME280;1098;48.940;8.962;2023-02-22T02:40:02;98301.44;;;4.58;100.00
2184;BME280;1098;48.940;8.962;2023-02-22T02:42:37;98296.94;;;4.37;100.00
2184;BME280;1098;48.940;8.962;2023-02-22T02:45:12;98297.75;;;5.14;100.00
2184;BME280;1098;48.940;8.962;2023-02-22T02:47:45;98295.06;;;5.14;100.00
2184;BME280;1098;48.940;8.962;2023-02-22T02:50:20;98286.19;;;4.79;100.00
2184;BME280;1098;48.940;8.962;2023-02-22T02:52:56;98291.94;;;4.76;100.00
2184;BME280;1098;48.940;8.962;2023-02-22T02:55:28;98287.56;;;4.97;100.00
2184;BME280;1098;48.940;8.962;2023-02-22T02:57:57;98290.09;;;5.11;100.00
2184;BME280;1098;48.940;8.962;2023-02-22T03:00:30;98273.59;;;5.08;100.00
2184;BME280;1098;48.940;8.962;2023-02-22T03:03:13;98287.88;;;4.87;100.00
2184;BME280;1098;48.940;8.962;2023-02-22T03:06:09;98280.28;;;5.25;100.00
2184;BME280;1098;48.940;8.962;2023-02-22T03:08:44;98271.16;;;5.13;100.00
2184;BME280;1098;48.940;8.962;2023-02-22T03:11:18;98275.53;;;4.86;100.00
2184;BME280;1098;48.940;8.962;2023-02-22T03:13:56;98274.13;;;4.90;100.00
2184;BME280;1098;48.940;8.962;2023-02-22T03:16:33;98269.56;;;5.18;100.00
2184;BME280;1098;48.940;8.962;2023-02-22T03:19:10;98257.59;;;5.69;100.00
2184;BME280;1098;48.940;8.962;2023-02-22T03:21:46;98254.28;;;5.60;100.00
2184;BME280;1098;48.940;8.962;2023-02-22T03:24:21;98256.31;;;5.51;100.00
2184;BME280;1098;48.940;8.962;2023-02-22T03:26:56;98265.34;;;6.05;100.00
2184;BME280;1098;48.940;8.962;2023-02-22T03:29:31;98259.19;;;6.24;100.00
2184;BME280;1098;48.940;8.962;2023-02-22T03:32:06;98261.81;;;5.43;100.00
2184;BME280;1098;48.940;8.962;2023-02-22T03:34:41;98258.59;;;5.13;100.00
2184;BME280;1098;48.940;8.962;2023-02-22T03:37:14;98252.53;;;5.94;100.00
2184;BME280;1098;48.940;8.962;2023-02-22T03:39:46;98260.28;;;4.87;100.00
2184;BME280;1098;48.940;8.962;2023-02-22T03:42:20;98210.72;;;4.63;100.00
2184;BME280;1098;48.940;8.962;2023-02-22T03:44:50;98251.41;;;5.14;100.00
2184;BME280;1098;48.940;8.962;2023-02-22T03:47:22;98253.59;;;5.45;100.00
2184;BME280;1098;48.940;8.962;2023-02-22T03:50:01;98251.13;;;5.02;100.00
2184;BME280;1098;48.940;8.962;2023-02-22T03:52:34;98249.78;;;5.20;100.00
2184;BME280;1098;48.940;8.962;2023-02-22T03:55:06;98256.47;;;5.37;100.00
2184;BME280;1098;48.940;8.962;2023-02-22T03:57:39;98250.88;;;5.32;100.00
2184;BME280;1098;48.940;8.962;2023-02-22T04:00:11;98253.06;;;5.22;100.00
2184;BME280;1098;48.940;8.962;2023-02-22T04:02:40;98252.63;;;5.11;100.00
2184;BME280;1098;48.940;8.962;2023-02-22T04:05:15;98258.66;;;5.27;100.00
2184;BME280;1098;48.940;8.962;2023-02-22T04:07:44;98252.78;;;5.99;100.00
2184;BME280;1098;48.940;8.962;2023-02-22T04:10:15;98255.47;;;6.12;100.00
2184;BME280;1098;48.940;8.962;2023-02-22T04:12:44;98255.00;;;5.34;100.00
2184;BME280;1098;48.940;8.962;2023-02-22T04:15:15;98265.91;;;5.33;100.00
2184;BME280;1098;48.940;8.962;2023-02-22T04:17:47;98259.69;;;5.26;100.00
2184;BME280;1098;48.940;8.962;2023-02-22T04:20:18;98261.19;;;5.35;100.00
2184;BME280;1098;48.940;8.962;2023-02-22T04:22:55;98233.88;;;5.11;100.00
2184;BME280;1098;48.940;8.962;2023-02-22T04:25:23;98257.94;;;5.05;100.00
2184;BME280;1098;48.940;8.962;2023-02-22T04:27:52;98260.16;;;5.42;100.00
2184;BME280;1098;48.940;8.962;2023-02-22T04:30:31;98257.00;;;5.19;100.00
2184;BME280;1098;48.940;8.962;2023-02-22T04:33:01;98247.47;;;5.10;100.00
2184;BME280;1098;48.940;8.962;2023-02-22T04:35:30;98255.25;;;5.05;100.00
2184;BME280;1098;48.940;8.962;2023-02-22T04:38:02;98257.19;;;5.17;100.00
2184;BME280;1098;48.940;8.962;2023-02-22T04:40:32;98252.69;;;4.90;100.00
2184;BME280;1098;48.940;8.962;2023-02-22T04:43:01;98249.81;;;4.92;100.00
2184;BME280;1098;48.940;8.962;2023-02-22T04:45:29;98250.22;;;5.30;100.00
2184;BME280;1098;48.940;8.962;2023-02-22T04:47:58;98245.53;;;5.93;100.00
2184;BME280;1098;48.940;8.962;2023-02-22T04:50:28;98240.00;;;6.47;100.00
2184;BME280;1098;48.940;8.962;2023-02-22T04:52:58;98240.19;;;6.12;100.00
2184;BME280;1098;48.940;8.962;2023-02-22T04:55:27;98248.47;;;6.31;100.00
2184;BME280;1098;48.940;8.962;2023-02-22T04:57:56;98242.22;;;6.04;100.00
2184;BME280;1098;48.940;8.962;2023-02-22T05:00:24;98246.91;;;5.28;100.00
2184;BME280;1098;48.940;8.962;2023-02-22T05:02:58;98238.53;;;5.44;100.00
2184;BME280;1098;48.940;8.962;2023-02-22T05:05:26;98249.66;;;5.34;100.00
2184;BME280;1098;48.940;8.962;2023-02-22T05:07:54;98235.75;;;5.17;100.00
2184;BME280;1098;48.940;8.962;2023-02-22T05:10:24;98237.06;;;5.35;100.00
2184;BME280;1098;48.940;8.962;2023-02-22T05:12:52;98235.41;;;5.34;100.00
2184;BME280;1098;48.940;8.962;2023-02-22T05:15:21;98225.84;;;5.59;100.00
2184;BME280;1098;48.940;8.962;2023-02-22T05:17:51;98225.13;;;5.44;100.00
2184;BME280;1098;48.940;8.962;2023-02-22T05:20:22;98234.81;;;5.99;100.00
2184;BME280;1098;48.940;8.962;2023-02-22T05:22:53;98231.88;;;5.81;100.00
2184;BME280;1098;48.940;8.962;2023-02-22T05:25:22;98236.41;;;5.80;100.00
2184;BME280;1098;48.940;8.962;2023-02-22T05:27:53;98236.84;;;5.30;100.00
2184;BME280;1098;48.940;8.962;2023-02-22T05:30:25;98227.75;;;5.24;100.00
2184;BME280;1098;48.940;8.962;2023-02-22T05:32:54;98229.78;;;5.22;100.00
2184;BME280;1098;48.940;8.962;2023-02-22T05:35:23;98232.03;;;5.12;100.00
2184;BME280;1098;48.940;8.962;2023-02-22T05:37:51;98228.28;;;5.06;100.00
2184;BME280;1098;48.940;8.962;2023-02-22T05:40:22;98230.06;;;5.34;100.00
2184;BME280;1098;48.940;8.962;2023-02-22T05:42:53;98232.66;;;5.68;100.00
2184;BME280;1098;48.940;8.962;2023-02-22T05:45:25;98232.28;;;5.78;100.00
2184;BME280;1098;48.940;8.962;2023-02-22T05:47:54;98232.25;;;5.71;100.00
2184;BME280;1098;48.940;8.962;2023-02-22T05:50:25;98222.28;;;5.52;100.00
2184;BME280;1098;48.940;8.962;2023-02-22T05:52:54;98238.56;;;5.50;100.00
2184;BME280;1098;48.940;8.962;2023-02-22T05:55:23;98225.34;;;4.95;100.00
2184;BME280;1098;48.940;8.962;2023-02-22T05:57:52;98223.72;;;5.48;100.00
2184;BME280;1098;48.940;8.962;2023-02-22T06:00:23;98223.16;;;5.66;100.00
2184;BME280;1098;48.940;8.962;2023-02-22T06:02:53;98222.25;;;6.33;100.00
2184;BME280;1098;48.940;8.962;2023-02-22T06:05:22;98223.44;;;5.91;100.00
2184;BME280;1098;48.940;8.962;2023-02-22T06:07:51;98229.72;;;5.63;100.00
2184;BME280;1098;48.940;8.962;2023-02-22T06:10:20;98222.69;;;5.49;100.00
2184;BME280;1098;48.940;8.962;2023-02-22T06:12:49;98229.94;;;5.07;100.00
2184;BME280;1098;48.940;8.962;2023-02-22T06:15:20;98226.63;;;5.05;100.00
2184;BME280;1098;48.940;8.962;2023-02-22T06:17:52;98230.66;;;4.88;100.00
2184;BME280;1098;48.940;8.962;2023-02-22T06:20:22;98238.16;;;5.06;100.00
2184;BME280;1098;48.940;8.962;2023-02-22T06:22:53;98237.31;;;5.40;100.00
2184;BME280;1098;48.940;8.962;2023-02-22T06:25:24;98237.38;;;5.12;100.00
2184;BME280;1098;48.940;8.962;2023-02-22T06:27:53;98248.72;;;5.21;100.00
2184;BME280;1098;48.940;8.962;2023-02-22T06:30:25;98239.38;;;4.69;100.00
2184;BME280;1098;48.940;8.962;2023-02-22T06:32:54;98256.41;;;5.30;100.00
2184;BME280;1098;48.940;8.962;2023-02-22T06:35:22;98257.81;;;5.74;100.00
2184;BME280;1098;48.940;8.962;2023-02-22T06:37:51;98257.63;;;5.28;100.00
2184;BME280;1098;48.940;8.962;2023-02-22T06:40:20;98260.16;;;5.42;100.00
2184;BME280;1098;48.940;8.962;2023-02-22T06:42:48;98262.34;;;5.19;100.00
2184;BME280;1098;48.940;8.962;2023-02-22T06:45:17;98265.47;;;5.77;100.00
2184;BME280;1098;48.940;8.962;2023-02-22T06:47:49;98266.56;;;5.96;100.00
2184;BME280;1098;48.940;8.962;2023-02-22T06:50:20;98259.38;;;4.73;100.00
2184;BME280;1098;48.940;8.962;2023-02-22T06:52:48;98270.25;;;4.99;100.00
2184;BME280;1098;48.940;8.962;2023-02-22T06:55:18;98279.09;;;5.34;100.00
2184;BME280;1098;48.940;8.962;2023-02-22T06:57:47;98268.09;;;5.57;100.00
2184;BME280;1098;48.940;8.962;2023-02-22T07:00:17;98278.97;;;6.10;100.00
2184;BME280;1098;48.940;8.962;2023-02-22T07:02:46;98268.91;;;5.64;100.00
2184;BME280;1098;48.940;8.962;2023-02-22T07:05:18;98279.81;;;6.10;100.00
2184;BME280;1098;48.940;8.962;2023-02-22T07:07:47;98283.59;;;5.75;100.00
2184;BME280;1098;48.940;8.962;2023-02-22T07:10:19;98273.66;;;6.23;100.00
2184;BME280;1098;48.940;8.962;2023-02-22T07:12:50;98272.00;;;6.35;100.00
2184;BME280;1098;48.940;8.962;2023-02-22T07:15:19;98283.56;;;6.75;100.00
2184;BME280;1098;48.940;8.962;2023-02-22T07:17:50;98289.59;;;5.83;100.00
2184;BME280;1098;48.940;8.962;2023-02-22T07:20:21;98293.44;;;5.55;100.00
2184;BME280;1098;48.940;8.962;2023-02-22T07:22:51;98288.53;;;6.72;100.00
2184;BME280;1098;48.940;8.962;2023-02-22T07:25:21;98296.91;;;6.03;100.00
2184;BME280;1098;48.940;8.962;2023-02-22T07:27:50;98292.66;;;6.81;100.00
2184;BME280;1098;48.940;8.962;2023-02-22T07:30:20;98296.75;;;6.24;100.00
2184;BME280;1098;48.940;8.962;2023-02-22T07:32:52;98293.47;;;6.55;100.00
2184;BME280;1098;48.940;8.962;2023-02-22T07:35:25;98303.63;;;5.79;100.00
2184;BME280;1098;48.940;8.962;2023-02-22T07:37:54;98297.94;;;5.95;100.00
2184;BME280;1098;48.940;8.962;2023-02-22T07:40:24;98296.31;;;6.14;100.00
2184;BME280;1098;48.940;8.962;2023-02-22T07:42:55;98294.69;;;6.46;100.00
2184;BME280;1098;48.940;8.962;2023-02-22T07:45:26;98289.34;;;6.52;100.00
2184;BME280;1098;48.940;8.962;2023-02-22T07:47:55;98292.00;;;6.92;100.00
2184;BME280;1098;48.940;8.962;2023-02-22T07:50:26;98295.97;;;6.83;100.00
2184;BME280;1098;48.940;8.962;2023-02-22T07:52:58;98294.59;;;7.45;100.00
2184;BME280;1098;48.940;8.962;2023-02-22T07:55:28;98287.50;;;6.79;100.00
2184;BME280;1098;48.940;8.962;2023-02-22T07:57:59;98297.19;;;6.94;100.00
2184;BME280;1098;48.940;8.962;2023-02-22T08:00:29;98294.63;;;7.38;100.00
2184;BME280;1098;48.940;8.962;2023-02-22T08:02:59;98286.81;;;7.23;100.00
2184;BME280;1098;48.940;8.962;2023-02-22T08:05:31;98292.63;;;6.87;100.00
2184;BME280;1098;48.940;8.962;2023-02-22T08:07:59;98292.53;;;7.47;100.00
2184;BME280;1098;48.940;8.962;2023-02-22T08:10:28;98296.88;;;8.31;100.00
2184;BME280;1098;48.940;8.962;2023-02-22T08:12:58;98287.81;;;8.25;100.00
2184;BME280;1098;48.940;8.962;2023-02-22T08:15:28;98279.53;;;7.88;100.00
2184;BME280;1098;48.940;8.962;2023-02-22T08:18:01;98288.06;;;8.17;100.00
2184;BME280;1098;48.940;8.962;2023-02-22T08:20:31;98288.38;;;8.34;100.00
2184;BME280;1098;48.940;8.962;2023-02-22T08:22:59;98284.06;;;8.57;100.00
2184;BME280;1098;48.940;8.962;2023-02-22T08:25:28;98280.06;;;8.04;100.00
2184;BME280;1098;48.940;8.962;2023-02-22T08:27:58;98282.84;;;8.53;100.00
2184;BME280;1098;48.940;8.962;2023-02-22T08:30:29;98286.94;;;8.63;100.00
2184;BME280;1098;48.940;8.962;2023-02-22T08:32:58;98282.06;;;8.96;100.00
2184;BME280;1098;48.940;8.962;2023-02-22T08:35:29;98281.16;;;9.09;100.00
2184;BME280;1098;48.940;8.962;2023-02-22T08:38:02;98285.28;;;8.61;100.00
2184;BME280;1098;48.940;8.962;2023-02-22T08:40:32;98281.34;;;8.89;100.00
2184;BME280;1098;48.940;8.962;2023-02-22T08:43:01;98284.13;;;9.19;100.00
2184;BME280;1098;48.940;8.962;2023-02-22T08:45:30;98283.47;;;9.60;100.00
2184;BME280;1098;48.940;8.962;2023-02-22T08:47:59;98270.59;;;9.25;100.00
2184;BME280;1098;48.940;8.962;2023-02-22T08:50:30;98278.97;;;9.17;100.00
2184;BME280;1098;48.940;8.962;2023-02-22T08:53:02;98278.81;;;10.45;100.00
2184;BME280;1098;48.940;8.962;2023-02-22T08:55:34;98275.44;;;9.90;100.00
2184;BME280;1098;48.940;8.962;2023-02-22T08:58:05;98281.44;;;9.92;100.00
2184;BME280;1098;48.940;8.962;2023-02-22T09:00:39;98277.34;;;9.53;100.00
2184;BME280;1098;48.940;8.962;2023-02-22T09:03:09;98282.97;;;9.33;100.00
2184;BME280;1098;48.940;8.962;2023-02-22T09:05:39;98282.88;;;9.58;100.00
2184;BME280;1098;48.940;8.962;2023-02-22T09:08:09;98275.44;;;10.61;100.00
2184;BME280;1098;48.940;8.962;2023-02-22T09:10:39;98271.38;;;10.71;100.00
2184;BME280;1098;48.940;8.962;2023-02-22T09:13:08;98271.38;;;11.29;100.00
2184;BME280;1098;48.940;8.962;2023-02-22T09:15:37;98260.09;;;11.09;100.00
2184;BME280;1098;48.940;8.962;2023-02-22T09:18:08;98270.16;;;9.65;100.00
2184;BME280;1098;48.940;8.962;2023-02-22T09:20:37;98274.25;;;9.86;100.00
2184;BME280;1098;48.940;8.962;2023-02-22T09:23:06;98265.03;;;10.77;100.00
2184;BME280;1098;48.940;8.962;2023-02-22T09:25:37;98271.38;;;11.17;100.00
2184;BME280;1098;48.940;8.962;2023-02-22T09:28:06;98266.66;;;11.24;100.00
2184;BME280;1098;48.940;8.962;2023-02-22T09:30:37;98261.75;;;11.85;100.00
2184;BME280;1098;48.940;8.962;2023-02-22T09:33:08;98262.28;;;11.58;100.00
2184;BME280;1098;48.940;8.962;2023-02-22T09:35:41;98263.94;;;11.59;100.00
2184;BME280;1098;48.940;8.962;2023-02-22T09:38:14;98261.97;;;11.95;100.00
2184;BME280;1098;48.940;8.962;2023-02-22T09:40:47;98266.72;;;11.76;100.00
2184;BME280;1098;48.940;8.962;2023-02-22T09:43:36;98241.09;;;11.44;100.00
2184;BME280;1098;48.940;8.962;2023-02-22T09:46:14;98262.47;;;12.37;100.00
2184;BME280;1098;48.940;8.962;2023-02-22T09:48:55;98257.16;;;12.14;100.00
2184;BME280;1098;48.940;8.962;2023-02-22T09:51:30;98261.38;;;12.21;100.00
2184;BME280;1098;48.940;8.962;2023-02-22T09:54:03;98247.81;;;12.04;100.00
2184;BME280;1098;48.940;8.962;2023-02-22T09:56:35;98249.53;;;11.70;100.00
2184;BME280;1098;48.940;8.962;2023-02-22T09:59:07;98254.78;;;12.62;100.00
2184;BME280;1098;48.940;8.962;2023-02-22T10:01:40;98242.97;;;11.55;100.00
2184;BME280;1098;48.940;8.962;2023-02-22T10:04:16;98247.22;;;11.51;100.00
2184;BME280;1098;48.940;8.962;2023-02-22T10:06:59;98249.38;;;12.17;100.00
2184;BME280;1098;48.940;8.962;2023-02-22T10:09:35;98252.97;;;13.01;100.00
2184;BME280;1098;48.940;8.962;2023-02-22T10:12:14;98242.72;;;12.87;100.00
2184;BME280;1098;48.940;8.962;2023-02-22T10:15:05;98247.38;;;13.08;100.00
2184;BME280;1098;48.940;8.962;2023-02-22T10:17:44;98243.06;;;13.12;100.00
2184;BME280;1098;48.940;8.962;2023-02-22T10:20:34;98237.69;;;12.79;100.00
2184;BME280;1098;48.940;8.962;2023-02-22T10:23:14;98242.09;;;13.57;100.00
2184;BME280;1098;48.940;8.962;2023-02-22T10:25:51;98241.56;;;13.38;100.00
2184;BME280;1098;48.940;8.962;2023-02-22T10:28:27;98239.28;;;14.44;100.00
2184;BME280;1098;48.940;8.962;2023-02-22T10:31:03;98230.94;;;14.56;100.00
2184;BME280;1098;48.940;8.962;2023-02-22T10:33:38;98233.41;;;13.16;100.00
2184;BME280;1098;48.940;8.962;2023-02-22T10:36:15;98235.81;;;12.62;100.00
2184;BME280;1098;48.940;8.962;2023-02-22T10:38:47;98225.16;;;13.11;100.00
2184;BME280;1098;48.940;8.962;2023-02-22T10:41:23;98232.94;;;13.63;100.00
2184;BME280;1098;48.940;8.962;2023-02-22T10:43:55;98238.34;;;13.19;100.00
2184;BME280;1098;48.940;8.962;2023-02-22T10:46:26;98229.97;;;13.43;100.00
2184;BME280;1098;48.940;8.962;2023-02-22T10:49:01;98217.44;;;14.66;100.00
2184;BME280;1098;48.940;8.962;2023-02-22T10:51:33;98223.91;;;14.92;100.00
2184;BME280;1098;48.940;8.962;2023-02-22T10:54:20;98223.16;;;15.01;100.00
2184;BME280;1098;48.940;8.962;2023-02-22T10:56:51;98222.88;;;14.39;100.00
2184;BME280;1098;48.940;8.962;2023-02-22T10:59:30;98217.66;;;14.91;100.00
2184;BME280;1098;48.940;8.962;2023-02-22T11:02:00;98218.94;;;14.84;100.00
2184;BME280;1098;48.940;8.962;2023-02-22T11:04:45;63131.69;;;-143.11;100.00
2184;BME280;1098;48.940;8.962;2023-02-22T11:07:19;63131.69;;;-143.11;100.00
2184;BME280;1098;48.940;8.962;2023-02-22T11:09:51;63131.69;;;-143.11;100.00
2184;BME280;1098;48.940;8.962;2023-02-22T11:12:25;63131.69;;;-143.11;100.00
2184;BME280;1098;48.940;8.962;2023-02-22T11:14:56;63131.69;;;-143.11;100.00
2184;BME280;1098;48.940;8.962;2023-02-22T11:17:28;63131.69;;;-143.11;100.00
2184;BME280;1098;48.940;8.962;2023-02-22T11:19:58;63131.69;;;-143.11;100.00
2184;BME280;1098;48.940;8.962;2023-02-22T11:22:29;63131.69;;;-143.11;100.00
2184;BME280;1098;48.940;8.962;2023-02-22T11:25:00;63131.69;;;-143.11;100.00
2184;BME280;1098;48.940;8.962;2023-02-22T11:27:33;63131.69;;;-143.11;100.00
2184;BME280;1098;48.940;8.962;2023-02-22T11:30:19;63131.69;;;-143.11;100.00
2184;BME280;1098;48.940;8.962;2023-02-22T11:32:52;63131.69;;;-143.11;100.00
2184;BME280;1098;48.940;8.962;2023-02-22T11:35:39;63131.69;;;-143.11;100.00
2184;BME280;1098;48.940;8.962;2023-02-22T11:38:18;63131.69;;;-143.11;100.00
2184;BME280;1098;48.940;8.962;2023-02-22T11:41:05;63131.69;;;-143.11;100.00
2184;BME280;1098;48.940;8.962;2023-02-22T11:43:34;63131.69;;;-143.11;100.00
2184;BME280;1098;48.940;8.962;2023-02-22T11:46:11;63131.69;;;-143.11;100.00
2184;BME280;1098;48.940;8.962;2023-02-22T11:48:43;63131.69;;;-143.11;100.00
2184;BME280;1098;48.940;8.962;2023-02-22T11:51:25;63131.69;;;-143.11;100.00
2184;BME280;1098;48.940;8.962;2023-02-22T11:54:07;63131.69;;;-143.11;100.00
2184;BME280;1098;48.940;8.962;2023-02-22T11:56:41;63131.69;;;-143.11;100.00
2184;BME280;1098;48.940;8.962;2023-02-22T11:59:21;63131.69;;;-143.11;100.00
2184;BME280;1098;48.940;8.962;2023-02-22T12:01:56;63131.69;;;-143.11;100.00
2184;BME280;1098;48.940;8.962;2023-02-22T12:04:44;63131.69;;;-143.11;100.00
2184;BME280;1098;48.940;8.962;2023-02-22T12:07:27;63131.69;;;-143.11;100.00
2184;BME280;1098;48.940;8.962;2023-02-22T12:10:05;63131.69;;;-143.11;100.00
2184;BME280;1098;48.940;8.962;2023-02-22T12:12:40;63131.69;;;-143.11;100.00
2184;BME280;1098;48.940;8.962;2023-02-22T12:15:17;63131.69;;;-143.11;100.00
2184;BME280;1098;48.940;8.962;2023-02-22T12:17:56;63131.69;;;-143.11;100.00
2184;BME280;1098;48.940;8.962;2023-02-22T12:20:31;63131.69;;;-143.11;100.00
2184;BME280;1098;48.940;8.962;2023-02-22T12:23:06;63131.69;;;-143.11;100.00
2184;BME280;1098;48.940;8.962;2023-02-22T12:25:52;63131.69;;;-143.11;100.00
2184;BME280;1098;48.940;8.962;2023-02-22T12:28:29;63131.69;;;-143.11;100.00
2184;BME280;1098;48.940;8.962;2023-02-22T12:31:08;63131.69;;;-143.11;100.00
2184;BME280;1098;48.940;8.962;2023-02-22T12:33:57;63131.69;;;-143.11;100.00
2184;BME280;1098;48.940;8.962;2023-02-22T12:36:33;63131.69;;;-143.11;100.00
2184;BME280;1098;48.940;8.962;2023-02-22T12:39:22;63131.69;;;-143.11;100.00
2184;BME280;1098;48.940;8.962;2023-02-22T12:41:54;63131.69;;;-143.11;100.00
2184;BME280;1098;48.940;8.962;2023-02-22T12:44:26;63131.69;;;-143.11;100.00
2184;BME280;1098;48.940;8.962;2023-02-22T12:46:57;63131.69;;;-143.11;100.00
2184;BME280;1098;48.940;8.962;2023-02-22T12:49:35;63131.69;;;-143.11;100.00
2184;BME280;1098;48.940;8.962;2023-02-22T12:52:09;63131.69;;;-143.11;100.00
2184;BME280;1098;48.940;8.962;2023-02-22T12:54:53;63131.69;;;-143.11;100.00
2184;BME280;1098;48.940;8.962;2023-02-22T12:57:29;63131.69;;;-143.11;100.00
2184;BME280;1098;48.940;8.962;2023-02-22T13:00:06;63131.69;;;-143.11;100.00
2184;BME280;1098;48.940;8.962;2023-02-22T13:02:42;63131.69;;;-143.11;100.00
2184;BME280;1098;48.940;8.962;2023-02-22T13:05:15;63131.69;;;-143.11;100.00
2184;BME280;1098;48.940;8.962;2023-02-22T13:07:49;63131.69;;;-143.11;100.00
2184;BME280;1098;48.940;8.962;2023-02-22T13:10:36;63131.69;;;-143.11;100.00
2184;BME280;1098;48.940;8.962;2023-02-22T13:13:13;63131.69;;;-143.11;100.00
2184;BME280;1098;48.940;8.962;2023-02-22T13:15:49;63131.69;;;-143.11;100.00
2184;BME280;1098;48.940;8.962;2023-02-22T13:18:27;63131.69;;;-143.11;100.00
2184;BME280;1098;48.940;8.962;2023-02-22T13:21:02;63131.69;;;-143.11;100.00
2184;BME280;1098;48.940;8.962;2023-02-22T13:23:40;63131.69;;;-143.11;100.00
2184;BME280;1098;48.940;8.962;2023-02-22T13:26:15;63131.69;;;-143.11;100.00
2184;BME280;1098;48.940;8.962;2023-02-22T13:28:48;63131.69;;;-143.11;100.00
2184;BME280;1098;48.940;8.962;2023-02-22T13:31:39;63131.69;;;-143.11;100.00
2184;BME280;1098;48.940;8.962;2023-02-22T13:34:37;63131.69;;;-143.11;100.00
2184;BME280;1098;48.940;8.962;2023-02-22T13:37:22;63131.69;;;-143.11;100.00
2184;BME280;1098;48.940;8.962;2023-02-22T13:40:18;63131.69;;;-143.11;100.00
2184;BME280;1098;48.940;8.962;2023-02-22T13:43:16;63131.69;;;-143.11;100.00
2184;BME280;1098;48.940;8.962;2023-02-22T13:46:21;63131.69;;;-143.11;100.00
2184;BME280;1098;48.940;8.962;2023-02-22T13:49:33;63131.69;;;-143.11;100.00